METAR EVRA 220350Z VRB02KT 9999 FEW007 OVC024 17/16 Q1015 NOSIG =

NOTAMs

Controllers Online

PositionControllerOnline
No controllers currently online

Booked ATC Today

* Times are UTC

The time is now

UTC: 

Local: 

Latvia vACC on twitter